Time;durP1;ratioP1;P1;durP2;ratioP2;P2;SDS_P1;SDS_P2;PMS_P1;PMS_P2;Temp;Humidity;BMP_temperature;BMP_pressure;BME280_temperature;BME280_humidity;BME280_pressure;Samples;Min_cycle;Max_cycle;Signal;HPM_P1;HPM_P2
2022/06/05 00:02:41;;;;;;;;;;;;;;;;;;5046847;28;1206;-77
2022/06/05 00:05:11;;;;;;;;;;;;;;;;;;5066954;28;1338;-77
2022/06/05 00:07:45;;;;;;;;;;;;;;;;;;5064047;28;1125;-76
2022/06/05 00:10:20;;;;;;;;;;;;;;;;;;5065187;28;1203;-77
2022/06/05 00:12:45;;;;;;;;;;;;;;;;;;5062363;28;1333;-77
2022/06/05 00:15:11;;;;;;;;;;;;;;;;;;5066637;28;1902;-77
2022/06/05 00:17:36;;;;;;;;;;;;;;;;;;5046619;28;1202;-77
2022/06/05 00:20:01;;;;;;;;;;;;;;;;;;5078415;28;1141;-77
2022/06/05 00:22:27;;;;;;;;;;;;;;;;;;5082713;28;1266;-76
2022/06/05 00:24:52;;;;;;;;;;;;;;;;;;5060189;28;1294;-77
2022/06/05 00:27:36;;;;;;;;;;;;;;;;;;5063649;28;1081;-77
2022/06/05 00:30:29;;;;;;;;;;;;;;;;;;5064570;28;1298;-77
2022/06/05 00:33:05;;;;;;;;;;;;;;;;;;5080104;28;1365;-77
2022/06/05 00:35:34;;;;;;;;;;;;;;;;;;5078770;28;1968;-77
2022/06/05 00:38:05;;;;;;;;;;;;;;;;;;5072431;28;1184;-77
2022/06/05 00:40:56;;;;;;;;;;;;;;;;;;5079009;28;1286;-76
2022/06/05 00:43:27;;;;;;;;;;;;;;;;;;5069449;28;1152;-75
2022/06/05 00:45:55;;;;;;;;;;;;;;;;;;5069734;28;1290;-75
2022/06/05 00:48:20;;;;;;;;;;;;;;;;;;5077202;28;1314;-76
2022/06/05 00:50:47;;;;;;;;;;;;;;;;;;5080631;28;1156;-76
2022/06/05 00:53:13;;;;;;;;;;;;;;;;;;5064113;28;1186;-76
2022/06/05 00:55:40;;;;;;;;;;;;;;;;;;5082607;28;1984;-76
2022/06/05 00:58:06;;;;;;;;;;;;;;;;;;5080470;28;1293;-75
2022/06/05 01:00:36;;;;;;;;;;;;;;;;;;5070826;28;1105;-75
2022/06/05 01:03:03;;;;;;;;;;;;;;;;;;5083446;28;1234;-75
2022/06/05 01:05:28;;;;;;;;;;;;;;;;;;5066500;28;1486;-76
2022/06/05 01:07:54;;;;;;;;;;;;;;;;;;5076583;28;1192;-76
2022/06/05 01:10:21;;;;;;;;;;;;;;;;;;5085468;28;1136;-76
2022/06/05 01:12:49;;;;;;;;;;;;;;;;;;5080786;28;1294;-76
2022/06/05 01:15:29;;;;;;;;;;;;;;;;;;5071115;28;1890;-76
2022/06/05 01:18:03;;;;;;;;;;;;;;;;;;5065825;28;1431;-76
2022/06/05 01:20:36;;;;;;;;;;;;;;;;;;5065003;28;1309;-76
2022/06/05 01:23:09;;;;;;;;;;;;;;;;;;5066940;28;1202;-76
2022/06/05 01:25:52;;;;;;;;;;;;;;;;;;5078345;28;1278;-76
2022/06/05 01:28:21;;;;;;;;;;;;;;;;;;5068162;28;1281;-77
2022/06/05 01:30:51;;;;;;;;;;;;;;;;;;5075860;28;1096;-76
2022/06/05 01:33:23;;;;;;;;;;;;;;;;;;5085510;28;1329;-76
2022/06/05 01:35:51;;;;;;;;;;;;;;;;;;5085713;28;1960;-76
2022/06/05 01:38:21;;;;;;;;;;;;;;;;;;5080187;28;1112;-77
2022/06/05 01:40:48;;;;;;;;;;;;;;;;;;5085452;28;1313;-76
2022/06/05 01:43:17;;;;;;;;;;;;;;;;;;5089166;28;1273;-76
2022/06/05 01:45:46;;;;;;;;;;;;;;;;;;5082762;28;1174;-76
2022/06/05 01:48:16;;;;;;;;;;;;;;;;;;5071043;28;1220;-76
2022/06/05 01:50:47;;;;;;;;;;;;;;;;;;5068567;28;1117;-76
2022/06/05 01:53:12;;;;;;;;;;;;;;;;;;5065785;28;1154;-76
2022/06/05 01:55:50;;;;;;;;;;;;;;;;;;5072814;28;1917;-76
2022/06/05 01:58:17;;;;;;;;;;;;;;;;;;5075361;28;1152;-77
2022/06/05 02:00:46;;;;;;;;;;;;;;;;;;5066462;28;1292;-77
2022/06/05 02:03:17;;;;;;;;;;;;;;;;;;5067440;28;1277;-75
2022/06/05 02:05:48;;;;;;;;;;;;;;;;;;5075805;28;1059;-75
2022/06/05 02:08:19;;;;;;;;;;;;;;;;;;5087166;28;1211;-76
2022/06/05 02:10:53;;;;;;;;;;;;;;;;;;5072249;28;1202;-76
2022/06/05 02:13:18;;;;;;;;;;;;;;;;;;5067288;28;1187;-76
2022/06/05 02:15:44;;;;;;;;;;;;;;;;;;5068349;28;1953;-76
2022/06/05 02:18:11;;;;;;;;;;;;;;;;;;5069192;28;1164;-76
2022/06/05 02:20:36;;;;;;;;;;;;;;;;;;5071186;28;1246;-76
2022/06/05 02:23:03;;;;;;;;;;;;;;;;;;5077135;28;1277;-76
2022/06/05 02:25:28;;;;;;;;;;;;;;;;;;5067172;28;1160;-75
2022/06/05 02:27:58;;;;;;;;;;;;;;;;;;5084760;28;1136;-75
2022/06/05 02:30:27;;;;;;;;;;;;;;;;;;5089114;28;1151;-75
2022/06/05 02:33:10;;;;;;;;;;;;;;;;;;5085898;28;1589;-76
2022/06/05 02:35:45;;;;;;;;;;;;;;;;;;5082778;28;1906;-74
2022/06/05 02:38:30;;;;;;;;;;;;;;;;;;5067010;28;1104;-75
2022/06/05 02:41:00;;;;;;;;;;;;;;;;;;5084993;28;1195;-76
2022/06/05 02:43:35;;;;;;;;;;;;;;;;;;5078564;28;1215;-75
2022/06/05 02:46:07;;;;;;;;;;;;;;;;;;5065249;28;1151;-75
2022/06/05 02:48:35;;;;;;;;;;;;;;;;;;5065276;28;1440;-75
2022/06/05 02:51:04;;;;;;;;;;;;;;;;;;5065158;28;1134;-75
2022/06/05 02:53:48;;;;;;;;;;;;;;;;;;5075597;28;1230;-74
2022/06/05 02:56:14;;;;;;;;;;;;;;;;;;5086168;28;1914;-75
2022/06/05 02:58:39;;;;;;;;;;;;;;;;;;5081778;28;1162;-75
2022/06/05 03:03:48;;;;;;;;;;;;;;;;;;5084947;28;980;-75
2022/06/05 03:06:14;;;;;;;;;;;;;;;;;;5078148;28;1284;-75
2022/06/05 03:08:42;;;;;;;;;;;;;;;;;;5080457;28;1273;-74
2022/06/05 03:11:07;;;;;;;;;;;;;;;;;;5058507;28;1245;-75
2022/06/05 03:13:33;;;;;;;;;;;;;;;;;;5068697;28;1279;-75
2022/06/05 03:15:58;;;;;;;;;;;;;;;;;;5068886;28;1933;-75
2022/06/05 03:18:23;;;;;;;;;;;;;;;;;;5084645;28;1193;-75
2022/06/05 03:20:49;;;;;;;;;;;;;;;;;;5086724;28;1163;-74
2022/06/05 03:23:28;;;;;;;;;;;;;;;;;;5067317;28;1304;-75
2022/06/05 03:25:53;;;;;;;;;;;;;;;;;;5077225;28;1397;-74
2022/06/05 03:28:19;;;;;;;;;;;;;;;;;;5068281;28;1408;-74
2022/06/05 03:30:44;;;;;;;;;;;;;;;;;;5074333;28;1158;-75
2022/06/05 03:33:10;;;;;;;;;;;;;;;;;;5075258;28;1168;-74
2022/06/05 03:35:43;;;;;;;;;;;;;;;;;;5057445;28;1905;-76
2022/06/05 03:38:09;;;;;;;;;;;;;;;;;;5068025;28;1451;-75
2022/06/05 03:40:35;;;;;;;;;;;;;;;;;;5081684;28;1234;-75
2022/06/05 03:43:01;;;;;;;;;;;;;;;;;;5072023;28;1178;-74
2022/06/05 03:45:26;;;;;;;;;;;;;;;;;;5085079;28;1278;-75
2022/06/05 03:47:51;;;;;;;;;;;;;;;;;;5084896;28;1309;-75
2022/06/05 03:50:17;;;;;;;;;;;;;;;;;;5074015;28;1286;-75
2022/06/05 03:52:43;;;;;;;;;;;;;;;;;;5065150;28;1338;-75
2022/06/05 03:55:10;;;;;;;;;;;;;;;;;;5060900;28;1906;-75
2022/06/05 03:57:35;;;;;;;;;;;;;;;;;;5065696;28;1148;-76
2022/06/05 04:00:00;;;;;;;;;;;;;;;;;;5064563;28;1052;-75
2022/06/05 04:02:26;;;;;;;;;;;;;;;;;;5066057;28;1293;-75
2022/06/05 04:04:52;;;;;;;;;;;;;;;;;;5065894;28;1178;-75
2022/06/05 04:07:17;;;;;;;;;;;;;;;;;;5067585;28;1294;-76
2022/06/05 04:09:43;;;;;;;;;;;;;;;;;;5081203;28;1201;-74
2022/06/05 04:12:09;;;;;;;;;;;;;;;;;;5081602;28;1145;-76
2022/06/05 04:14:34;;;;;;;;;;;;;;;;;;5086031;28;1183;-76
2022/06/05 04:17:00;;;;;;;;;;;;;;;;;;5085894;28;1898;-76
2022/06/05 04:19:25;;;;;;;;;;;;;;;;;;5086104;28;1143;-76
2022/06/05 04:21:50;;;;;;;;;;;;;;;;;;5083447;28;1151;-75
2022/06/05 04:24:16;;;;;;;;;;;;;;;;;;5081762;28;1324;-76
2022/06/05 04:26:42;;;;;;;;;;;;;;;;;;5066386;28;1219;-75
2022/06/05 04:29:07;;;;;;;;;;;;;;;;;;5079456;28;1266;-75
2022/06/05 04:31:37;;;;;;;;;;;;;;;;;;5064785;28;1196;-76
2022/06/05 04:34:05;;;;;;;;;;;;;;;;;;5064796;28;1159;-76
2022/06/05 04:36:31;;;;;;;;;;;;;;;;;;5066168;28;1902;-75
2022/06/05 04:38:57;;;;;;;;;;;;;;;;;;5060119;28;1250;-74
2022/06/05 04:41:24;;;;;;;;;;;;;;;;;;5065258;28;1191;-75
2022/06/05 04:43:50;;;;;;;;;;;;;;;;;;5063522;28;1203;-76
2022/06/05 04:46:17;;;;;;;;;;;;;;;;;;5078451;28;1222;-77
2022/06/05 04:48:42;;;;;;;;;;;;;;;;;;5083193;28;1242;-76
2022/06/05 04:51:09;;;;;;;;;;;;;;;;;;5077836;28;1218;-77
2022/06/05 04:53:34;;;;;;;;;;;;;;;;;;5078495;28;1198;-75
2022/06/05 04:56:07;;;;;;;;;;;;;;;;;;5072668;28;1910;-75
2022/06/05 04:58:33;;;;;;;;;;;;;;;;;;5063630;28;1144;-75
2022/06/05 05:00:59;;;;;;;;;;;;;;;;;;5080816;28;1458;-75
2022/06/05 05:03:24;;;;;;;;;;;;;;;;;;5085230;28;1206;-75
2022/06/05 05:05:53;;;;;;;;;;;;;;;;;;5085164;28;1168;-76
2022/06/05 05:08:18;;;;;;;;;;;;;;;;;;5069216;28;1163;-76
2022/06/05 05:10:44;;;;;;;;;;;;;;;;;;5061456;28;1093;-76
2022/06/05 05:13:09;;;;;;;;;;;;;;;;;;5044488;28;1258;-75
2022/06/05 05:15:34;;;;;;;;;;;;;;;;;;5063748;28;1898;-76
2022/06/05 05:18:00;;;;;;;;;;;;;;;;;;5067233;28;1187;-75
2022/06/05 05:20:26;;;;;;;;;;;;;;;;;;5069645;28;1329;-76
2022/06/05 05:22:55;;;;;;;;;;;;;;;;;;5068072;28;1196;-76
2022/06/05 05:25:20;;;;;;;;;;;;;;;;;;5047404;28;1193;-75
2022/06/05 05:27:45;;;;;;;;;;;;;;;;;;5049694;28;1195;-75
2022/06/05 05:30:11;;;;;;;;;;;;;;;;;;5067462;28;1140;-75
2022/06/05 05:32:37;;;;;;;;;;;;;;;;;;5068924;28;1330;-76
2022/06/05 05:35:04;;;;;;;;;;;;;;;;;;5065340;28;1285;-77
2022/06/05 05:37:29;;;;;;;;;;;;;;;;;;5050422;28;1917;-77
2022/06/05 05:42:38;;;;;;;;;;;;;;;;;;5067143;28;1052;-77
2022/06/05 05:45:05;;;;;;;;;;;;;;;;;;5069547;28;1285;-77
2022/06/05 05:47:31;;;;;;;;;;;;;;;;;;5069476;28;1316;-77
2022/06/05 05:50:01;;;;;;;;;;;;;;;;;;5066650;28;1256;-77
2022/06/05 05:52:27;;;;;;;;;;;;;;;;;;5079506;28;1239;-77
2022/06/05 05:55:01;;;;;;;;;;;;;;;;;;5080786;28;1065;-77
2022/06/05 05:57:26;;;;;;;;;;;;;;;;;;5071420;28;2030;-77
2022/06/05 05:59:51;;;;;;;;;;;;;;;;;;5064952;28;1218;-77
2022/06/05 06:02:21;;;;;;;;;;;;;;;;;;5063967;28;1187;-76
2022/06/05 06:04:46;;;;;;;;;;;;;;;;;;5064811;28;1258;-78
2022/06/05 06:07:12;;;;;;;;;;;;;;;;;;5070404;28;1219;-76
2022/06/05 06:09:37;;;;;;;;;;;;;;;;;;5056859;28;1256;-76
2022/06/05 06:12:03;;;;;;;;;;;;;;;;;;5077321;28;1324;-76
2022/06/05 06:14:28;;;;;;;;;;;;;;;;;;5069115;28;1322;-76
2022/06/05 06:16:54;;;;;;;;;;;;;;;;;;5079458;28;1947;-77
2022/06/05 06:19:19;;;;;;;;;;;;;;;;;;5084528;28;1400;-77
2022/06/05 06:21:45;;;;;;;;;;;;;;;;;;5085040;28;1155;-77
2022/06/05 06:24:11;;;;;;;;;;;;;;;;;;5073620;28;1107;-76
2022/06/05 06:26:37;;;;;;;;;;;;;;;;;;5066521;28;1176;-77
2022/06/05 06:29:03;;;;;;;;;;;;;;;;;;5075538;28;1207;-77
2022/06/05 06:31:28;;;;;;;;;;;;;;;;;;5074160;28;1147;-77
2022/06/05 06:33:53;;;;;;;;;;;;;;;;;;5067680;28;1175;-77
2022/06/05 06:36:19;;;;;;;;;;;;;;;;;;5079364;28;1890;-77
2022/06/05 06:38:44;;;;;;;;;;;;;;;;;;5077311;28;1187;-77
2022/06/05 06:41:14;;;;;;;;;;;;;;;;;;5072607;28;1084;-76
2022/06/05 06:43:40;;;;;;;;;;;;;;;;;;5064649;28;1216;-76
2022/06/05 06:46:05;;;;;;;;;;;;;;;;;;5070997;28;1172;-77
2022/06/05 06:48:30;;;;;;;;;;;;;;;;;;5086739;28;1292;-76
2022/06/05 06:50:56;;;;;;;;;;;;;;;;;;5086542;28;1198;-76
2022/06/05 06:53:27;;;;;;;;;;;;;;;;;;5085801;28;1274;-76
2022/06/05 06:55:53;;;;;;;;;;;;;;;;;;5067332;28;1925;-76
2022/06/05 06:58:19;;;;;;;;;;;;;;;;;;5062593;28;1329;-76
2022/06/05 07:00:44;;;;;;;;;;;;;;;;;;5049149;28;1231;-76
2022/06/05 07:03:10;;;;;;;;;;;;;;;;;;5063422;28;1195;-76
2022/06/05 07:05:35;;;;;;;;;;;;;;;;;;5079412;28;1207;-76
2022/06/05 07:08:02;;;;;;;;;;;;;;;;;;5049660;28;1166;-76
2022/06/05 07:10:28;;;;;;;;;;;;;;;;;;5077166;28;1140;-77
2022/06/05 07:12:53;;;;;;;;;;;;;;;;;;5083437;28;1136;-75
2022/06/05 07:15:19;;;;;;;;;;;;;;;;;;5081711;28;1898;-76
2022/06/05 07:17:44;;;;;;;;;;;;;;;;;;5086466;28;1203;-75
2022/06/05 07:20:10;;;;;;;;;;;;;;;;;;5062036;28;1211;-75
2022/06/05 07:22:35;;;;;;;;;;;;;;;;;;5085312;28;1166;-76
2022/06/05 07:25:01;;;;;;;;;;;;;;;;;;5081464;28;1144;-76
2022/06/05 07:27:27;;;;;;;;;;;;;;;;;;5083586;28;1065;-76
2022/06/05 07:29:52;;;;;;;;;;;;;;;;;;5062279;28;1239;-77
2022/06/05 07:32:17;;;;;;;;;;;;;;;;;;5046237;28;1134;-76
2022/06/05 07:34:43;;;;;;;;;;;;;;;;;;5064161;28;1306;-76
2022/06/05 07:37:09;;;;;;;;;;;;;;;;;;5064328;28;1890;-76
2022/06/05 07:39:34;;;;;;;;;;;;;;;;;;5071339;28;1239;-76
2022/06/05 07:41:59;;;;;;;;;;;;;;;;;;5065765;28;1421;-76
2022/06/05 07:44:25;;;;;;;;;;;;;;;;;;5064435;28;1199;-76
2022/06/05 07:46:51;;;;;;;;;;;;;;;;;;5063525;28;1305;-76
2022/06/05 07:49:16;;;;;;;;;;;;;;;;;;5083720;28;1210;-76
2022/06/05 07:54:26;;;;;;;;;;;;;;;;;;5083929;28;1026;-75
2022/06/05 07:56:52;;;;;;;;;;;;;;;;;;5084730;28;1987;-76
2022/06/05 07:59:17;;;;;;;;;;;;;;;;;;5082423;28;1305;-76
2022/06/05 08:01:42;;;;;;;;;;;;;;;;;;5085731;28;1207;-76
2022/06/05 08:04:08;;;;;;;;;;;;;;;;;;5079385;28;1381;-75
2022/06/05 08:06:34;;;;;;;;;;;;;;;;;;5066375;28;1105;-76
2022/06/05 08:09:03;;;;;;;;;;;;;;;;;;5063564;28;1160;-76
2022/06/05 08:11:29;;;;;;;;;;;;;;;;;;5063257;28;1174;-75
2022/06/05 08:13:54;;;;;;;;;;;;;;;;;;5063421;28;1156;-75
2022/06/05 08:16:19;;;;;;;;;;;;;;;;;;5062118;28;1918;-73
2022/06/05 08:18:45;;;;;;;;;;;;;;;;;;5064108;28;1214;-74
2022/06/05 08:21:16;;;;;;;;;;;;;;;;;;5079284;28;1172;-76
2022/06/05 08:23:41;;;;;;;;;;;;;;;;;;5063839;28;1191;-78
2022/06/05 08:26:07;;;;;;;;;;;;;;;;;;5065369;28;1262;-78
2022/06/05 08:28:32;;;;;;;;;;;;;;;;;;5059264;28;1392;-83
2022/06/05 08:30:58;;;;;;;;;;;;;;;;;;5055656;28;1282;-82
2022/06/05 08:33:24;;;;;;;;;;;;;;;;;;5063443;28;1175;-82
2022/06/05 08:35:49;;;;;;;;;;;;;;;;;;5055581;28;1882;-82
2022/06/05 08:41:28;;;;;;;;;;;;;;;;;;5077782;28;1105;-83
2022/06/05 08:43:59;;;;;;;;;;;;;;;;;;5069517;28;1313;-82
2022/06/05 08:46:43;;;;;;;;;;;;;;;;;;5072820;28;1261;-82
2022/06/05 08:49:29;;;;;;;;;;;;;;;;;;5076327;28;1214;-82
2022/06/05 08:51:54;;;;;;;;;;;;;;;;;;5079625;28;1327;-82
2022/06/05 08:54:31;;;;;;;;;;;;;;;;;;5076962;28;1186;-82
2022/06/05 08:57:18;;;;;;;;;;;;;;;;;;5075442;28;1910;-81
2022/06/05 08:59:55;;;;;;;;;;;;;;;;;;5076418;28;1264;-81
2022/06/05 09:02:23;;;;;;;;;;;;;;;;;;5076942;28;1278;-81
2022/06/05 09:04:53;;;;;;;;;;;;;;;;;;5072426;28;1219;-82
2022/06/05 09:07:34;;;;;;;;;;;;;;;;;;5071010;28;1097;-82
2022/06/05 09:10:03;;;;;;;;;;;;;;;;;;5062788;28;1198;-79
2022/06/05 09:12:34;;;;;;;;;;;;;;;;;;5078779;28;1175;-78
2022/06/05 09:15:20;;;;;;;;;;;;;;;;;;5073196;28;1396;-78
2022/06/05 09:17:51;;;;;;;;;;;;;;;;;;5082958;28;1124;-82
2022/06/05 09:20:18;;;;;;;;;;;;;;;;;;5079853;28;1114;-75
2022/06/05 09:22:48;;;;;;;;;;;;;;;;;;5082954;28;1241;-77
2022/06/05 09:25:20;;;;;;;;;;;;;;;;;;5081058;28;1138;-79
2022/06/05 09:28:07;;;;;;;;;;;;;;;;;;5060117;28;1121;-75
2022/06/05 09:30:38;;;;;;;;;;;;;;;;;;5060137;28;1190;-75
2022/06/05 09:33:18;;;;;;;;;;;;;;;;;;5064745;28;1210;-74
2022/06/05 09:35:50;;;;;;;;;;;;;;;;;;5064678;28;1978;-75
2022/06/05 09:38:25;;;;;;;;;;;;;;;;;;5064673;28;1227;-75
2022/06/05 09:40:59;;;;;;;;;;;;;;;;;;5060923;28;1299;-75
2022/06/05 09:43:27;;;;;;;;;;;;;;;;;;5059530;28;1202;-74
2022/06/05 09:46:02;;;;;;;;;;;;;;;;;;5063689;28;1251;-74
2022/06/05 09:48:33;;;;;;;;;;;;;;;;;;5061205;28;1278;-74
2022/06/05 09:50:58;;;;;;;;;;;;;;;;;;5064061;28;1270;-74
2022/06/05 09:53:36;;;;;;;;;;;;;;;;;;5061505;28;1134;-76
2022/06/05 09:56:01;;;;;;;;;;;;;;;;;;5062498;28;1929;-76
2022/06/05 09:58:27;;;;;;;;;;;;;;;;;;5058805;28;1101;-75
2022/06/05 10:00:57;;;;;;;;;;;;;;;;;;5063785;28;1451;-75
2022/06/05 10:03:35;;;;;;;;;;;;;;;;;;5072872;28;1179;-74
2022/06/05 10:06:19;;;;;;;;;;;;;;;;;;5087236;28;1202;-75
2022/06/05 10:08:50;;;;;;;;;;;;;;;;;;5084541;28;1013;-75
2022/06/05 10:11:32;;;;;;;;;;;;;;;;;;5085987;28;1309;-75
2022/06/05 10:14:02;;;;;;;;;;;;;;;;;;5085758;28;1306;-75
2022/06/05 10:16:33;;;;;;;;;;;;;;;;;;5085153;28;1886;-74
2022/06/05 10:19:10;;;;;;;;;;;;;;;;;;5082697;28;1223;-75
2022/06/05 10:21:39;;;;;;;;;;;;;;;;;;5067025;28;1263;-74
2022/06/05 10:24:24;;;;;;;;;;;;;;;;;;5066519;28;1165;-75
2022/06/05 10:26:51;;;;;;;;;;;;;;;;;;5044766;28;1199;-75
2022/06/05 10:29:21;;;;;;;;;;;;;;;;;;5067486;28;1165;-75
2022/06/05 10:31:56;;;;;;;;;;;;;;;;;;5065128;28;1160;-74
2022/06/05 10:34:31;;;;;;;;;;;;;;;;;;5067855;28;1140;-75
2022/06/05 10:37:03;;;;;;;;;;;;;;;;;;5067521;28;1973;-74
2022/06/05 10:39:40;;;;;;;;;;;;;;;;;;5064155;28;1207;-75
2022/06/05 10:42:21;;;;;;;;;;;;;;;;;;5063275;28;1136;-75
2022/06/05 10:44:46;;;;;;;;;;;;;;;;;;5073069;28;1203;-75
2022/06/05 10:47:30;;;;;;;;;;;;;;;;;;5074733;28;1392;-77
2022/06/05 10:50:05;;;;;;;;;;;;;;;;;;5070166;28;1251;-76
2022/06/05 10:52:34;;;;;;;;;;;;;;;;;;5084850;28;1211;-76
2022/06/05 10:55:12;;;;;;;;;;;;;;;;;;5084110;28;1195;-76
2022/06/05 10:57:40;;;;;;;;;;;;;;;;;;5062185;28;1938;-75
2022/06/05 11:00:16;;;;;;;;;;;;;;;;;;5072180;28;1172;-76
2022/06/05 11:02:51;;;;;;;;;;;;;;;;;;5070022;28;1173;-76
2022/06/05 11:05:36;;;;;;;;;;;;;;;;;;5065774;28;1272;-75
2022/06/05 11:08:01;;;;;;;;;;;;;;;;;;5066167;28;1167;-75
2022/06/05 11:13:42;;;;;;;;;;;;;;;;;;5082084;28;1072;-76
2022/06/05 11:16:10;;;;;;;;;;;;;;;;;;5065357;28;1886;-76
2022/06/05 11:18:46;;;;;;;;;;;;;;;;;;5063555;28;1207;-77
2022/06/05 11:21:16;;;;;;;;;;;;;;;;;;5072729;28;1196;-78
2022/06/05 11:23:41;;;;;;;;;;;;;;;;;;5078735;28;1240;-78
2022/06/05 11:26:25;;;;;;;;;;;;;;;;;;5087848;28;1215;-75
2022/06/05 11:28:54;;;;;;;;;;;;;;;;;;5082739;28;1137;-74
2022/06/05 11:31:26;;;;;;;;;;;;;;;;;;5087491;28;1207;-74
2022/06/05 11:33:58;;;;;;;;;;;;;;;;;;5081744;28;1146;-76
2022/06/05 11:36:29;;;;;;;;;;;;;;;;;;5085360;28;1897;-75
2022/06/05 11:39:13;;;;;;;;;;;;;;;;;;5083309;28;1217;-76
2022/06/05 11:41:44;;;;;;;;;;;;;;;;;;5067101;28;1107;-77
2022/06/05 11:44:18;;;;;;;;;;;;;;;;;;5066553;28;1068;-77
2022/06/05 11:46:53;;;;;;;;;;;;;;;;;;5063116;28;1409;-76
2022/06/05 11:49:21;;;;;;;;;;;;;;;;;;5071868;28;1174;-76
2022/06/05 11:51:50;;;;;;;;;;;;;;;;;;5069309;28;1195;-76
2022/06/05 11:54:18;;;;;;;;;;;;;;;;;;5080797;28;1199;-76
2022/06/05 11:56:55;;;;;;;;;;;;;;;;;;5061587;28;1898;-75
2022/06/05 11:59:33;;;;;;;;;;;;;;;;;;5072612;28;1345;-77
2022/06/05 12:02:14;;;;;;;;;;;;;;;;;;5084398;28;1277;-75
2022/06/05 12:04:57;;;;;;;;;;;;;;;;;;5068467;28;1171;-75
2022/06/05 12:07:23;;;;;;;;;;;;;;;;;;5071020;28;1172;-75
2022/06/05 12:09:53;;;;;;;;;;;;;;;;;;5081944;28;1192;-76
2022/06/05 12:12:25;;;;;;;;;;;;;;;;;;5073722;28;1292;-76
2022/06/05 12:14:56;;;;;;;;;;;;;;;;;;5065240;28;1116;-76
2022/06/05 12:17:34;;;;;;;;;;;;;;;;;;5065095;28;1890;-76
2022/06/05 12:20:06;;;;;;;;;;;;;;;;;;5064035;28;1313;-76
2022/06/05 12:22:40;;;;;;;;;;;;;;;;;;5069531;28;1238;-77
2022/06/05 12:25:18;;;;;;;;;;;;;;;;;;5084936;28;1167;-78
2022/06/05 12:27:43;;;;;;;;;;;;;;;;;;5079517;28;1332;-79
2022/06/05 12:30:15;;;;;;;;;;;;;;;;;;5083043;28;1230;-75
2022/06/05 12:32:59;;;;;;;;;;;;;;;;;;5082753;28;1304;-75
2022/06/05 12:35:28;;;;;;;;;;;;;;;;;;5084092;28;1301;-74
2022/06/05 12:38:08;;;;;;;;;;;;;;;;;;5084477;28;1120;-75
2022/06/05 12:40:44;;;;;;;;;;;;;;;;;;5082951;28;1312;-75
2022/06/05 12:43:20;;;;;;;;;;;;;;;;;;5081364;28;1242;-74
2022/06/05 12:45:47;;;;;;;;;;;;;;;;;;5059446;28;1182;-75
2022/06/05 12:48:27;;;;;;;;;;;;;;;;;;5077672;28;1210;-75
2022/06/05 12:50:58;;;;;;;;;;;;;;;;;;5083730;28;1357;-74
2022/06/05 12:53:28;;;;;;;;;;;;;;;;;;5081847;28;1203;-74
2022/06/05 12:56:12;;;;;;;;;;;;;;;;;;5077149;28;1997;-74
2022/06/05 12:58:56;;;;;;;;;;;;;;;;;;5056527;28;1249;-74
2022/06/05 13:01:43;;;;;;;;;;;;;;;;;;5078185;28;1128;-74
2022/06/05 13:04:27;;;;;;;;;;;;;;;;;;5080505;28;1288;-74
2022/06/05 13:07:04;;;;;;;;;;;;;;;;;;5080872;28;1189;-74
2022/06/05 13:09:40;;;;;;;;;;;;;;;;;;5077357;28;1131;-74
2022/06/05 13:12:25;;;;;;;;;;;;;;;;;;5080681;28;1191;-74
2022/06/05 13:14:57;;;;;;;;;;;;;;;;;;5076453;28;1163;-74
2022/06/05 13:17:39;;;;;;;;;;;;;;;;;;5080784;28;1933;-74
2022/06/05 13:20:23;;;;;;;;;;;;;;;;;;5080358;28;1171;-73
2022/06/05 13:22:48;;;;;;;;;;;;;;;;;;5078926;28;1159;-73
2022/06/05 13:25:32;;;;;;;;;;;;;;;;;;5079794;28;1128;-73
2022/06/05 13:28:02;;;;;;;;;;;;;;;;;;5077856;28;1107;-73
2022/06/05 13:30:28;;;;;;;;;;;;;;;;;;5080388;28;1167;-74
2022/06/05 13:33:13;;;;;;;;;;;;;;;;;;5076360;28;1217;-73
2022/06/05 13:35:44;;;;;;;;;;;;;;;;;;5081965;28;1953;-73
2022/06/05 13:38:15;;;;;;;;;;;;;;;;;;5081185;28;1127;-73
2022/06/05 13:40:50;;;;;;;;;;;;;;;;;;5082535;28;1139;-73
2022/06/05 13:43:20;;;;;;;;;;;;;;;;;;5080187;28;1043;-75
2022/06/05 13:45:55;;;;;;;;;;;;;;;;;;5076584;28;1199;-76
2022/06/05 13:48:25;;;;;;;;;;;;;;;;;;5082875;28;1328;-74
2022/06/05 13:51:07;;;;;;;;;;;;;;;;;;5083790;28;1155;-74
2022/06/05 13:53:41;;;;;;;;;;;;;;;;;;5078829;28;1169;-75
2022/06/05 13:56:12;;;;;;;;;;;;;;;;;;5082326;28;1961;-75
2022/06/05 13:58:44;;;;;;;;;;;;;;;;;;5079113;28;1072;-74
2022/06/05 14:01:12;;;;;;;;;;;;;;;;;;5065431;28;1133;-75
2022/06/05 14:03:51;;;;;;;;;;;;;;;;;;5079665;28;1177;-75
2022/06/05 14:06:16;;;;;;;;;;;;;;;;;;5085980;28;806;-75
2022/06/05 14:08:42;;;;;;;;;;;;;;;;;;5076895;28;1284;-73
2022/06/05 14:11:10;;;;;;;;;;;;;;;;;;5083441;28;1091;-74
2022/06/05 14:13:49;;;;;;;;;;;;;;;;;;5078748;28;1307;-72
2022/06/05 14:16:15;;;;;;;;;;;;;;;;;;5085651;28;1891;-75
2022/06/05 14:18:43;;;;;;;;;;;;;;;;;;5065349;28;1162;-73
2022/06/05 14:21:13;;;;;;;;;;;;;;;;;;5080869;28;988;-75
2022/06/05 14:23:44;;;;;;;;;;;;;;;;;;5081494;28;806;-75
2022/06/05 14:26:12;;;;;;;;;;;;;;;;;;5083304;28;1087;-73
2022/06/05 14:28:39;;;;;;;;;;;;;;;;;;5079669;28;825;-73
2022/06/05 14:31:16;;;;;;;;;;;;;;;;;;5079412;28;1290;-74
2022/06/05 14:33:51;;;;;;;;;;;;;;;;;;5076908;28;1153;-74
2022/06/05 14:36:25;;;;;;;;;;;;;;;;;;5080370;28;1949;-75
2022/06/05 14:38:50;;;;;;;;;;;;;;;;;;5079244;28;1025;-73
2022/06/05 14:41:39;;;;;;;;;;;;;;;;;;5083326;28;1179;-76
2022/06/05 14:44:05;;;;;;;;;;;;;;;;;;5078622;28;1262;-74
2022/06/05 14:46:31;;;;;;;;;;;;;;;;;;5080076;28;1009;-75
2022/06/05 14:49:15;;;;;;;;;;;;;;;;;;5063957;28;1140;-75
2022/06/05 14:51:47;;;;;;;;;;;;;;;;;;5062194;28;1203;-75
2022/06/05 14:57:51;;;;;;;;;;;;;;;;;;5060905;28;1216;-74
2022/06/05 15:00:07;;;;;;;;;;;;;;;;;;5073439;28;1052;-78
2022/06/05 15:03:05;;;;;;;;;;;;;;;;;;5085760;28;1162;-78
2022/06/05 15:05:33;;;;;;;;;;;;;;;;;;5051602;28;1341;-78
2022/06/05 15:08:07;;;;;;;;;;;;;;;;;;5079436;28;1250;-73
2022/06/05 15:10:37;;;;;;;;;;;;;;;;;;5082319;28;1155;-74
2022/06/05 15:13:25;;;;;;;;;;;;;;;;;;5070375;28;1123;-75
2022/06/05 15:15:57;;;;;;;;;;;;;;;;;;5084712;28;1961;-74
2022/06/05 15:18:23;;;;;;;;;;;;;;;;;;5085355;28;1336;-73
2022/06/05 15:21:08;;;;;;;;;;;;;;;;;;5066457;28;1359;-74
2022/06/05 15:23:52;;;;;;;;;;;;;;;;;;5068898;28;1353;-75
2022/06/05 15:26:40;;;;;;;;;;;;;;;;;;5065471;28;1180;-75
2022/06/05 15:29:29;;;;;;;;;;;;;;;;;;5070446;28;1377;-75
2022/06/05 15:32:05;;;;;;;;;;;;;;;;;;5068228;28;1168;-76
2022/06/05 15:34:34;;;;;;;;;;;;;;;;;;5066246;28;1140;-76
2022/06/05 15:37:24;;;;;;;;;;;;;;;;;;5062365;28;2002;-76
2022/06/05 15:39:57;;;;;;;;;;;;;;;;;;5057943;28;1253;-76
2022/06/05 15:42:30;;;;;;;;;;;;;;;;;;5063145;28;1297;-76
2022/06/05 15:45:01;;;;;;;;;;;;;;;;;;5060441;28;1144;-75
2022/06/05 15:47:30;;;;;;;;;;;;;;;;;;5064011;28;1407;-76
2022/06/05 15:50:04;;;;;;;;;;;;;;;;;;5062922;28;1174;-76
2022/06/05 15:52:36;;;;;;;;;;;;;;;;;;5057859;28;1278;-76
2022/06/05 15:55:24;;;;;;;;;;;;;;;;;;5061769;28;1299;-80
2022/06/05 15:58:20;;;;;;;;;;;;;;;;;;5056527;28;1913;-75
2022/06/05 16:00:59;;;;;;;;;;;;;;;;;;5045151;28;1327;-75
2022/06/05 16:03:28;;;;;;;;;;;;;;;;;;5077490;28;1139;-75
2022/06/05 16:05:58;;;;;;;;;;;;;;;;;;5079813;28;1112;-75
2022/06/05 16:08:28;;;;;;;;;;;;;;;;;;5078513;28;1246;-74
2022/06/05 16:11:01;;;;;;;;;;;;;;;;;;5076989;28;1147;-74
2022/06/05 16:13:30;;;;;;;;;;;;;;;;;;5076485;28;1294;-74
2022/06/05 16:15:58;;;;;;;;;;;;;;;;;;5077781;28;1864;-74
2022/06/05 16:18:53;;;;;;;;;;;;;;;;;;5064260;28;1257;-72
2022/06/05 16:21:30;;;;;;;;;;;;;;;;;;5068964;28;1453;-72
2022/06/05 16:24:05;;;;;;;;;;;;;;;;;;5075309;28;1172;-72
2022/06/05 16:26:55;;;;;;;;;;;;;;;;;;5061004;28;1096;-74
2022/06/05 16:29:21;;;;;;;;;;;;;;;;;;5068246;28;1186;-73
2022/06/05 16:31:46;;;;;;;;;;;;;;;;;;5074894;28;1160;-74
2022/06/05 16:34:31;;;;;;;;;;;;;;;;;;5056486;28;1101;-73
2022/06/05 16:39:53;;;;;;;;;;;;;;;;;;5067610;28;958;-72
2022/06/05 16:42:24;;;;;;;;;;;;;;;;;;5068160;28;1159;-73
2022/06/05 16:45:01;;;;;;;;;;;;;;;;;;5078035;28;1348;-72
2022/06/05 16:47:41;;;;;;;;;;;;;;;;;;5076277;28;1253;-71
2022/06/05 16:50:06;;;;;;;;;;;;;;;;;;5078823;28;1190;-72
2022/06/05 16:52:36;;;;;;;;;;;;;;;;;;5082471;28;1080;-73
2022/06/05 16:55:09;;;;;;;;;;;;;;;;;;5075077;28;1159;-73
2022/06/05 16:57:47;;;;;;;;;;;;;;;;;;5071754;28;1909;-73
2022/06/05 17:00:12;;;;;;;;;;;;;;;;;;5056558;28;1313;-73
2022/06/05 17:02:46;;;;;;;;;;;;;;;;;;5060474;28;1135;-73
2022/06/05 17:05:14;;;;;;;;;;;;;;;;;;5068582;28;1018;-73
2022/06/05 17:07:51;;;;;;;;;;;;;;;;;;5074172;28;1140;-73
2022/06/05 17:10:31;;;;;;;;;;;;;;;;;;5071602;28;1162;-72
2022/06/05 17:13:04;;;;;;;;;;;;;;;;;;5081298;28;1071;-72
2022/06/05 17:15:39;;;;;;;;;;;;;;;;;;5071833;28;1217;-72
2022/06/05 17:18:34;;;;;;;;;;;;;;;;;;5078849;28;1254;-72
2022/06/05 17:21:04;;;;;;;;;;;;;;;;;;5072330;28;1428;-73
2022/06/05 17:23:44;;;;;;;;;;;;;;;;;;5066326;28;1277;-73
2022/06/05 17:26:28;;;;;;;;;;;;;;;;;;5063997;28;1136;-72
2022/06/05 17:29:04;;;;;;;;;;;;;;;;;;5062794;28;1190;-72
2022/06/05 17:31:36;;;;;;;;;;;;;;;;;;5071230;28;1352;-73
2022/06/05 17:34:05;;;;;;;;;;;;;;;;;;5080815;28;1274;-72
2022/06/05 17:36:39;;;;;;;;;;;;;;;;;;5081578;28;1890;-72
2022/06/05 17:39:19;;;;;;;;;;;;;;;;;;5077968;28;1243;-72
2022/06/05 17:41:45;;;;;;;;;;;;;;;;;;5079901;28;1336;-73
2022/06/05 17:44:17;;;;;;;;;;;;;;;;;;5067057;28;1151;-74
2022/06/05 17:47:02;;;;;;;;;;;;;;;;;;5066240;28;1251;-72
2022/06/05 17:49:40;;;;;;;;;;;;;;;;;;5065889;28;1186;-72
2022/06/05 17:52:10;;;;;;;;;;;;;;;;;;5065740;28;1195;-72